createdAt,value
2022-10-20T00:00:21.714Z,99.99
2022-10-20T00:01:21.703Z,99.99
2022-10-20T00:02:21.732Z,99.99
2022-10-20T00:03:21.707Z,99.99
2022-10-20T00:04:21.676Z,99.99
2022-10-20T00:05:21.661Z,99.99
2022-10-20T00:06:21.650Z,99.99
2022-10-20T00:07:21.669Z,99.99
2022-10-20T00:08:21.672Z,99.99
2022-10-20T00:09:21.632Z,99.99
2022-10-20T00:10:21.627Z,99.99
2022-10-20T00:11:21.614Z,99.99
2022-10-20T00:12:21.605Z,99.99
2022-10-20T00:13:21.651Z,99.99
2022-10-20T00:14:21.587Z,99.99
2022-10-20T00:15:21.598Z,99.99
2022-10-20T00:16:21.570Z,99.99
2022-10-20T00:17:21.566Z,99.99
2022-10-20T00:18:21.558Z,99.99
2022-10-20T00:19:21.571Z,99.99
2022-10-20T00:20:21.543Z,99.99
2022-10-20T00:21:21.532Z,99.99
2022-10-20T00:22:21.524Z,99.99
2022-10-20T00:23:21.517Z,99.99
2022-10-20T00:24:21.539Z,99.99
2022-10-20T00:25:21.504Z,99.99
2022-10-20T00:26:21.495Z,99.99
2022-10-20T00:27:21.478Z,99.99
2022-10-20T00:28:21.480Z,99.99
2022-10-20T00:29:21.519Z,99.99
2022-10-20T00:30:23.733Z,99.99
2022-10-20T00:31:21.453Z,99.99
2022-10-20T00:32:21.440Z,99.99
2022-10-20T00:33:21.443Z,99.99
2022-10-20T00:34:21.474Z,99.99
2022-10-20T00:35:21.413Z,99.99
2022-10-20T00:36:21.427Z,99.99
2022-10-20T00:37:21.399Z,99.99
2022-10-20T00:38:21.424Z,99.99
2022-10-20T00:39:21.410Z,99.99
2022-10-20T00:40:21.372Z,99.99
2022-10-20T00:41:21.371Z,99.99
2022-10-20T00:42:21.351Z,99.99
2022-10-20T00:43:21.378Z,99.99
2022-10-20T00:44:21.342Z,99.99
2022-10-20T00:45:21.336Z,99.99
2022-10-20T00:46:21.325Z,99.99
2022-10-20T00:47:21.315Z,99.99
2022-10-20T00:48:21.341Z,99.99
2022-10-20T00:49:21.293Z,99.99
2022-10-20T00:50:21.282Z,99.99
2022-10-20T00:51:21.278Z,99.99
2022-10-20T00:52:21.270Z,99.99
2022-10-20T00:53:21.294Z,99.99
2022-10-20T00:54:21.247Z,99.99
2022-10-20T00:55:22.249Z,99.99
2022-10-20T00:56:21.259Z,99.99
2022-10-20T00:57:21.237Z,99.99
2022-10-20T00:58:21.231Z,99.99
2022-10-20T00:59:21.249Z,99.99
2022-10-20T01:00:21.200Z,99.99
2022-10-20T01:01:21.238Z,99.99
2022-10-20T01:02:21.189Z,99.99
2022-10-20T01:03:21.219Z,99.99
2022-10-20T01:04:21.173Z,99.99
2022-10-20T01:05:21.164Z,99.99
2022-10-20T01:06:21.180Z,99.99
2022-10-20T01:07:21.148Z,99.99
2022-10-20T01:08:21.172Z,99.99
2022-10-20T01:09:21.131Z,99.99
2022-10-20T01:10:21.126Z,99.99
2022-10-20T01:11:21.118Z,99.99
2022-10-20T01:12:21.107Z,99.99
2022-10-20T01:13:21.135Z,99.99
2022-10-20T01:14:21.104Z,99.99
2022-10-20T01:15:21.140Z,99.99
2022-10-20T01:16:21.071Z,99.99
2022-10-20T01:17:21.074Z,99.99
2022-10-20T01:18:21.084Z,99.99
2022-10-20T01:19:21.056Z,99.99
2022-10-20T01:20:21.042Z,99.99
2022-10-20T01:21:21.042Z,99.99
2022-10-20T01:22:22.032Z,99.99
2022-10-20T01:23:21.060Z,99.99
2022-10-20T01:24:21.098Z,99.99
2022-10-20T01:25:21.006Z,99.99
2022-10-20T01:26:21.001Z,99.99
2022-10-20T01:27:20.984Z,99.99
2022-10-20T01:28:21.008Z,99.99
2022-10-20T01:29:20.970Z,99.99
2022-10-20T01:30:20.966Z,99.99
2022-10-20T01:31:20.947Z,99.99
2022-10-20T01:32:20.968Z,99.99
2022-10-20T01:33:20.951Z,99.99
2022-10-20T01:34:20.948Z,99.99
2022-10-20T01:35:20.920Z,99.99
2022-10-20T01:36:20.907Z,99.99
2022-10-20T01:37:33.994Z,99.99
2022-10-20T01:38:22.893Z,99.99
2022-10-20T01:39:20.914Z,99.99
2022-10-20T01:40:20.881Z,99.99
2022-10-20T01:41:20.872Z,99.99
2022-10-20T01:42:20.862Z,99.99
2022-10-20T01:43:20.851Z,99.99
2022-10-20T01:44:20.877Z,99.99
2022-10-20T01:45:20.831Z,99.99
2022-10-20T01:46:20.825Z,99.99
2022-10-20T01:47:20.817Z,99.99
2022-10-20T01:48:20.808Z,99.99
2022-10-20T01:49:20.831Z,99.99
2022-10-20T01:50:20.804Z,99.99
2022-10-20T01:51:20.782Z,99.99
2022-10-20T01:52:20.780Z,99.99
2022-10-20T01:53:20.772Z,99.99
2022-10-20T01:54:20.788Z,99.99
2022-10-20T01:55:20.756Z,99.99
2022-10-20T01:56:20.751Z,99.99
2022-10-20T01:57:20.733Z,99.99
2022-10-20T01:58:20.765Z,99.99
2022-10-20T01:59:20.747Z,99.99
2022-10-20T02:00:20.716Z,99.99
2022-10-20T02:01:20.741Z,99.99
2022-10-20T02:02:20.703Z,99.99
2022-10-20T02:03:20.685Z,99.99
2022-10-20T02:04:20.709Z,99.99
2022-10-20T02:05:20.675Z,99.99
2022-10-20T02:06:20.655Z,99.99
2022-10-20T02:07:20.650Z,99.99
2022-10-20T02:08:20.642Z,99.99
2022-10-20T02:09:20.667Z,99.99
2022-10-20T02:10:20.626Z,99.99
2022-10-20T02:11:20.672Z,99.99
2022-10-20T02:12:20.619Z,99.99
2022-10-20T02:13:20.609Z,99.99
2022-10-20T02:14:20.633Z,99.99
2022-10-20T02:15:20.592Z,99.99
2022-10-20T02:16:20.584Z,99.99
2022-10-20T02:17:20.575Z,99.99
2022-10-20T02:18:20.566Z,99.99
2022-10-20T02:19:20.586Z,99.99
2022-10-20T02:20:20.549Z,99.99
2022-10-20T02:21:20.540Z,99.99
2022-10-20T02:22:20.544Z,99.99
2022-10-20T02:23:20.594Z,99.99
2022-10-20T02:24:20.549Z,99.99
2022-10-20T02:25:20.552Z,99.99
2022-10-20T02:26:20.507Z,99.99
2022-10-20T02:27:20.489Z,99.99
2022-10-20T02:28:20.484Z,99.99
2022-10-20T02:29:20.509Z,99.99
2022-10-20T02:30:20.467Z,99.99
2022-10-20T02:31:20.454Z,99.99
2022-10-20T02:32:20.452Z,99.99
2022-10-20T02:33:20.462Z,99.99
2022-10-20T02:34:20.462Z,99.99
2022-10-20T02:35:20.423Z,99.99
2022-10-20T02:36:20.431Z,99.99
2022-10-20T02:37:20.402Z,99.99
2022-10-20T02:38:20.402Z,99.99
2022-10-20T02:39:20.428Z,99.99
2022-10-20T02:40:20.381Z,99.99
2022-10-20T02:41:20.372Z,99.99
2022-10-20T02:42:20.372Z,99.99
2022-10-20T02:43:20.356Z,99.99
2022-10-20T02:44:20.390Z,99.99
2022-10-20T02:45:20.343Z,99.99
2022-10-20T02:46:20.347Z,99.99
2022-10-20T02:47:20.319Z,99.99
2022-10-20T02:48:20.320Z,99.99
2022-10-20T02:49:20.308Z,99.99
2022-10-20T02:50:20.330Z,99.99
2022-10-20T02:51:20.293Z,99.99
2022-10-20T02:52:20.289Z,99.99
2022-10-20T02:53:20.278Z,99.99
2022-10-20T02:54:20.296Z,99.99
2022-10-20T02:55:20.270Z,99.99
2022-10-20T02:56:20.253Z,99.99
2022-10-20T02:57:20.243Z,99.99
2022-10-20T02:58:20.233Z,99.99
2022-10-20T02:59:20.256Z,99.99
2022-10-20T03:00:20.221Z,99.99
2022-10-20T03:01:20.255Z,99.99
2022-10-20T03:02:20.208Z,99.99
2022-10-20T03:03:20.195Z,99.99
2022-10-20T03:04:20.276Z,99.99
2022-10-20T03:05:20.175Z,99.99
2022-10-20T03:06:20.209Z,99.99
2022-10-20T03:07:20.157Z,99.99
2022-10-20T03:08:20.158Z,99.99
2022-10-20T03:09:20.170Z,99.99
2022-10-20T03:10:20.135Z,99.99
2022-10-20T03:11:20.124Z,99.99
2022-10-20T03:12:20.115Z,99.99
2022-10-20T03:13:20.220Z,99.99
2022-10-20T03:14:20.128Z,99.99
2022-10-20T03:15:20.094Z,99.99
2022-10-20T03:16:20.083Z,99.99
2022-10-20T03:17:20.075Z,99.99
2022-10-20T03:18:20.064Z,99.99
2022-10-20T03:19:20.098Z,99.99
2022-10-20T03:20:20.061Z,99.99
2022-10-20T03:21:20.044Z,99.99
2022-10-20T03:22:20.096Z,99.99
2022-10-20T03:23:20.277Z,99.99
2022-10-20T03:24:20.046Z,99.99
2022-10-20T03:25:20.018Z,99.99
2022-10-20T03:26:20.013Z,99.99
2022-10-20T03:27:20.000Z,99.99
2022-10-20T03:28:19.986Z,99.99
2022-10-20T03:29:20.007Z,99.99
2022-10-20T03:30:19.973Z,99.99
2022-10-20T03:31:19.963Z,99.99
2022-10-20T03:32:19.948Z,99.99
2022-10-20T03:33:19.950Z,99.99
2022-10-20T03:34:19.973Z,99.99
2022-10-20T03:35:19.926Z,99.99
2022-10-20T03:36:19.933Z,99.99
2022-10-20T03:37:19.926Z,99.99
2022-10-20T03:38:19.908Z,99.99
2022-10-20T03:39:19.930Z,99.99
2022-10-20T03:40:19.886Z,99.99
2022-10-20T03:41:19.886Z,99.99
2022-10-20T03:42:19.871Z,99.99
2022-10-20T03:43:19.864Z,99.99
2022-10-20T03:44:19.862Z,99.99
2022-10-20T03:45:19.894Z,99.99
2022-10-20T03:46:19.838Z,99.99
2022-10-20T03:47:19.833Z,99.99
2022-10-20T03:48:19.831Z,99.99
2022-10-20T03:49:19.818Z,99.99
2022-10-20T03:50:19.832Z,99.99
2022-10-20T03:51:19.810Z,99.99
2022-10-20T03:52:19.798Z,99.99
2022-10-20T03:53:19.795Z,99.99
2022-10-20T03:54:19.777Z,99.99
2022-10-20T03:55:19.804Z,99.99
2022-10-20T03:56:19.762Z,99.99
2022-10-20T03:57:19.764Z,99.99
2022-10-20T03:58:19.771Z,99.99
2022-10-20T03:59:19.740Z,99.99
2022-10-20T04:00:19.763Z,99.99
2022-10-20T04:01:19.760Z,99.99
2022-10-20T04:02:19.718Z,99.99
2022-10-20T04:03:19.719Z,99.99
2022-10-20T04:04:19.705Z,99.99
2022-10-20T04:05:19.732Z,99.99
2022-10-20T04:06:19.684Z,99.99
2022-10-20T04:07:19.686Z,99.99
2022-10-20T04:08:19.682Z,99.99
2022-10-20T04:09:19.670Z,99.99
2022-10-20T04:10:19.682Z,99.99
2022-10-20T04:11:19.642Z,99.99
2022-10-20T04:12:19.636Z,99.99
2022-10-20T04:13:19.627Z,99.99
2022-10-20T04:14:19.626Z,99.99
2022-10-20T04:15:19.644Z,99.99
2022-10-20T04:16:19.600Z,99.99
2022-10-20T04:17:20.597Z,99.99
2022-10-20T04:18:19.625Z,99.99
2022-10-20T04:19:19.587Z,99.99
2022-10-20T04:20:19.598Z,99.99
2022-10-20T04:21:19.567Z,99.99
2022-10-20T04:22:19.555Z,99.99
2022-10-20T04:23:19.548Z,99.99
2022-10-20T04:24:19.545Z,99.99
2022-10-20T04:25:19.561Z,99.99
2022-10-20T04:26:19.526Z,99.99
2022-10-20T04:27:19.525Z,99.99
2022-10-20T04:28:19.506Z,99.99
2022-10-20T04:29:19.500Z,99.99
2022-10-20T04:30:19.526Z,99.99
2022-10-20T04:31:19.479Z,99.99
2022-10-20T04:32:19.470Z,99.99
2022-10-20T04:33:19.467Z,99.99
2022-10-20T04:34:19.463Z,99.99
2022-10-20T04:35:19.484Z,99.99
2022-10-20T04:36:19.446Z,99.99
2022-10-20T04:37:19.438Z,99.99
2022-10-20T04:38:19.428Z,99.99
2022-10-20T04:39:19.425Z,99.99
2022-10-20T04:40:19.443Z,99.99
2022-10-20T04:41:19.402Z,99.99
2022-10-20T04:42:19.400Z,99.99
2022-10-20T04:43:19.382Z,99.99
2022-10-20T04:44:19.415Z,99.99
2022-10-20T04:45:19.407Z,99.99
2022-10-20T04:46:19.361Z,99.99
2022-10-20T04:47:19.354Z,99.99
2022-10-20T04:48:19.346Z,99.99
2022-10-20T04:49:19.338Z,99.99
2022-10-20T04:50:19.374Z,99.99
2022-10-20T04:51:19.331Z,99.99
2022-10-20T04:52:19.320Z,99.99
2022-10-20T04:53:19.312Z,99.99
2022-10-20T04:54:19.303Z,99.99
2022-10-20T04:55:19.321Z,99.99
2022-10-20T04:56:19.292Z,99.99
2022-10-20T04:57:19.327Z,99.99
2022-10-20T04:58:19.271Z,99.99
2022-10-20T04:59:19.264Z,99.99
2022-10-20T05:00:19.276Z,99.99
2022-10-20T05:01:19.285Z,99.99
2022-10-20T05:02:19.243Z,99.99
2022-10-20T05:03:19.227Z,99.99
2022-10-20T05:04:19.219Z,99.99
2022-10-20T05:05:19.229Z,99.99
2022-10-20T05:06:19.196Z,99.99
2022-10-20T05:07:19.196Z,99.99
2022-10-20T05:08:19.176Z,99.99
2022-10-20T05:09:19.179Z,99.99
2022-10-20T05:10:19.191Z,99.99
2022-10-20T05:11:19.164Z,99.99
2022-10-20T05:12:19.157Z,99.99
2022-10-20T05:13:19.148Z,99.99
2022-10-20T05:14:19.138Z,99.99
2022-10-20T05:15:19.187Z,99.99
2022-10-20T05:16:19.124Z,99.99
2022-10-20T05:17:19.117Z,99.99
2022-10-20T05:18:19.109Z,99.99
2022-10-20T05:19:19.101Z,99.99
2022-10-20T05:20:19.093Z,99.99
2022-10-20T05:21:19.145Z,99.99
2022-10-20T05:22:19.075Z,99.99
2022-10-20T05:23:19.066Z,99.99
2022-10-20T05:24:21.446Z,99.99
2022-10-20T05:25:35.486Z,99.99
2022-10-20T05:26:21.071Z,99.99
2022-10-20T05:27:19.038Z,99.99
2022-10-20T05:28:19.041Z,99.99
2022-10-20T05:29:19.019Z,99.99
2022-10-20T05:30:19.008Z,99.99
2022-10-20T05:31:19.059Z,99.99
2022-10-20T05:32:18.996Z,99.99
2022-10-20T05:33:18.985Z,99.99
2022-10-20T05:34:18.977Z,99.99
2022-10-20T05:35:19.001Z,99.99
2022-10-20T05:36:21.461Z,99.99
2022-10-20T05:37:18.962Z,99.99
2022-10-20T05:38:18.949Z,99.99
2022-10-20T05:39:24.548Z,99.99
2022-10-20T05:40:18.958Z,99.99
2022-10-20T05:41:18.971Z,99.99
2022-10-20T05:42:18.916Z,99.99
2022-10-20T05:43:18.914Z,99.99
2022-10-20T05:44:18.906Z,99.99
2022-10-20T05:45:18.900Z,99.99
2022-10-20T05:46:18.936Z,99.99
2022-10-20T05:47:18.879Z,99.99
2022-10-20T05:48:18.872Z,99.99
2022-10-20T05:49:18.864Z,99.99
2022-10-20T05:50:18.854Z,99.99
2022-10-20T05:51:18.852Z,99.99
2022-10-20T05:52:19.025Z,99.99
2022-10-20T05:53:18.840Z,99.99
2022-10-20T05:54:18.812Z,99.99
2022-10-20T05:55:19.813Z,99.99
2022-10-20T05:56:18.811Z,99.99
2022-10-20T05:57:18.827Z,99.99
2022-10-20T05:58:19.625Z,99.99
2022-10-20T05:59:18.787Z,99.99
2022-10-20T06:00:18.774Z,99.99
2022-10-20T06:01:18.789Z,99.99
2022-10-20T06:02:18.788Z,99.99
2022-10-20T06:03:19.898Z,99.99
2022-10-20T06:04:19.750Z,99.99
2022-10-20T06:05:18.735Z,99.99
2022-10-20T06:06:18.728Z,99.99
2022-10-20T06:07:18.760Z,99.99
2022-10-20T06:08:18.711Z,99.99
2022-10-20T06:09:18.703Z,99.99
2022-10-20T06:10:18.694Z,99.99
2022-10-20T06:11:18.690Z,99.99
2022-10-20T06:12:18.714Z,99.99
2022-10-20T06:13:18.673Z,99.99
2022-10-20T06:14:18.667Z,99.99
2022-10-20T06:15:18.663Z,99.99
2022-10-20T06:16:18.657Z,99.99
2022-10-20T06:17:18.676Z,99.99
2022-10-20T06:18:18.642Z,99.99
2022-10-20T06:19:18.632Z,99.99
2022-10-20T06:20:18.613Z,99.99
2022-10-20T06:21:18.617Z,99.99
2022-10-20T06:22:18.639Z,99.99
2022-10-20T06:23:18.594Z,99.99
2022-10-20T06:24:18.589Z,99.99
2022-10-20T06:25:18.574Z,99.99
2022-10-20T06:26:18.606Z,99.99
2022-10-20T06:27:18.567Z,99.99
2022-10-20T06:28:18.554Z,99.99
2022-10-20T06:29:18.544Z,99.99
2022-10-20T06:30:18.532Z,99.99
2022-10-20T06:31:18.558Z,99.99
2022-10-20T06:32:18.645Z,99.99
2022-10-20T06:33:18.516Z,99.99
2022-10-20T06:34:18.498Z,99.99
2022-10-20T06:35:18.497Z,99.99
2022-10-20T06:36:18.513Z,99.99
2022-10-20T06:37:18.484Z,99.99
2022-10-20T06:38:18.467Z,99.99
2022-10-20T06:39:18.464Z,99.99
2022-10-20T06:40:18.449Z,99.99
2022-10-20T06:41:18.477Z,99.99
2022-10-20T06:42:18.471Z,99.99
2022-10-20T06:43:18.435Z,99.15
2022-10-20T06:44:18.425Z,99.66
2022-10-20T06:45:18.408Z,98.94
2022-10-20T06:46:18.443Z,99.56
2022-10-20T06:47:18.398Z,99.00
2022-10-20T06:48:18.390Z,98.85
2022-10-20T06:49:18.377Z,97.98
2022-10-20T06:50:18.376Z,96.59
2022-10-20T06:51:18.406Z,96.34
2022-10-20T06:52:18.385Z,96.36
2022-10-20T06:53:18.346Z,94.55
2022-10-20T06:54:18.343Z,94.51
2022-10-20T06:55:18.331Z,92.10
2022-10-20T06:56:18.365Z,92.71
2022-10-20T06:57:18.316Z,92.11
2022-10-20T06:58:18.313Z,92.01
2022-10-20T06:59:18.299Z,92.58
2022-10-20T07:00:18.405Z,92.91
2022-10-20T07:01:18.384Z,91.57
2022-10-20T07:02:18.319Z,91.18
2022-10-20T07:03:18.263Z,90.83
2022-10-20T07:04:18.260Z,87.45
2022-10-20T07:05:18.249Z,89.66
2022-10-20T07:06:18.251Z,88.14
2022-10-20T07:07:18.262Z,86.77
2022-10-20T07:08:18.243Z,86.05
2022-10-20T07:09:18.219Z,85.07
2022-10-20T07:10:18.211Z,86.65
2022-10-20T07:11:18.204Z,86.85
2022-10-20T07:12:18.223Z,87.57
2022-10-20T07:13:18.182Z,87.43
2022-10-20T07:14:18.168Z,87.53
2022-10-20T07:15:18.167Z,84.87
2022-10-20T07:16:18.152Z,85.71
2022-10-20T07:17:18.178Z,84.31
2022-10-20T07:18:18.141Z,84.31
2022-10-20T07:19:18.135Z,85.03
2022-10-20T07:20:18.122Z,84.79
2022-10-20T07:21:18.113Z,84.61
2022-10-20T07:22:18.139Z,82.83
2022-10-20T07:23:18.098Z,81.91
2022-10-20T07:24:18.097Z,82.73
2022-10-20T07:25:18.089Z,82.63
2022-10-20T07:26:18.073Z,82.63
2022-10-20T07:27:18.101Z,81.87
2022-10-20T07:28:18.065Z,81.16
2022-10-20T07:29:18.053Z,82.12
2022-10-20T07:30:18.040Z,82.69
2022-10-20T07:31:18.031Z,81.73
2022-10-20T07:32:18.053Z,80.98
2022-10-20T07:33:18.011Z,81.04
2022-10-20T07:34:27.096Z,80.02
2022-10-20T07:35:20.005Z,80.37
2022-10-20T07:36:17.989Z,80.07
2022-10-20T07:37:18.008Z,79.90
2022-10-20T07:38:17.979Z,81.63
2022-10-20T07:39:17.966Z,80.89
2022-10-20T07:40:17.990Z,81.87
2022-10-20T07:41:17.945Z,81.16
2022-10-20T07:42:17.982Z,80.10
2022-10-20T07:43:17.930Z,80.75
2022-10-20T07:44:17.936Z,82.26
2022-10-20T07:45:17.935Z,83.46
2022-10-20T07:46:17.910Z,84.55
2022-10-20T07:47:17.926Z,83.44
2022-10-20T07:48:17.896Z,82.42
2022-10-20T07:50:19.880Z,82.31
2022-10-20T07:51:17.881Z,80.50
2022-10-20T07:52:18.898Z,80.56
2022-10-20T07:53:17.868Z,79.57
2022-10-20T07:54:17.841Z,78.86
2022-10-20T07:55:37.736Z,77.16
2022-10-20T07:56:19.841Z,77.16
2022-10-20T07:57:17.850Z,76.65
2022-10-20T07:58:17.817Z,77.29
2022-10-20T07:59:17.804Z,76.48
2022-10-20T08:00:17.800Z,77.44
2022-10-20T08:01:17.840Z,79.10
2022-10-20T08:02:17.883Z,79.30
2022-10-20T08:03:17.778Z,78.80
2022-10-20T08:04:17.769Z,78.66
2022-10-20T08:05:17.764Z,77.44
2022-10-20T08:06:17.784Z,77.44
2022-10-20T08:07:17.769Z,79.48
2022-10-20T08:08:17.765Z,80.91
2022-10-20T08:09:17.725Z,80.74
2022-10-20T08:10:17.725Z,80.64
2022-10-20T08:11:17.730Z,81.25
2022-10-20T08:12:17.736Z,80.74
2022-10-20T08:13:17.700Z,82.51
2022-10-20T08:14:17.687Z,82.41
2022-10-20T08:15:18.228Z,82.86
2022-10-20T08:16:21.182Z,82.65
2022-10-20T08:17:17.706Z,84.01
2022-10-20T08:18:17.893Z,84.01
2022-10-20T08:19:58.689Z,83.51
2022-10-20T08:20:21.400Z,83.30
2022-10-20T08:21:18.656Z,83.44
2022-10-20T08:22:17.658Z,84.26
2022-10-20T08:23:17.657Z,83.95
2022-10-20T08:24:17.609Z,85.28
2022-10-20T08:25:17.596Z,85.08
2022-10-20T08:26:17.588Z,84.26
2022-10-20T08:27:17.586Z,84.22
2022-10-20T08:28:17.614Z,83.67
2022-10-20T08:29:17.573Z,82.51
2022-10-20T08:30:23.736Z,82.82
2022-10-20T08:31:19.544Z,83.43
2022-10-20T08:32:17.575Z,82.88
2022-10-20T08:33:17.526Z,81.79
2022-10-20T08:34:17.514Z,80.36
2022-10-20T08:35:17.526Z,79.75
2022-10-20T08:36:17.496Z,79.54
2022-10-20T08:38:17.484Z,80.08
2022-10-20T08:39:17.473Z,78.99
2022-10-20T08:40:17.470Z,78.92
2022-10-20T08:41:17.467Z,79.98
2022-10-20T08:42:17.472Z,79.68
2022-10-20T08:43:18.441Z,79.84
2022-10-20T08:44:17.440Z,79.13
2022-10-20T08:45:17.435Z,79.70
2022-10-20T08:47:17.453Z,77.01
2022-10-20T08:48:17.410Z,76.40
2022-10-20T08:49:17.397Z,76.44
2022-10-20T08:50:17.396Z,76.64
2022-10-20T08:51:17.378Z,76.44
2022-10-20T08:52:17.423Z,76.75
2022-10-20T08:53:17.364Z,76.40
2022-10-20T08:54:17.356Z,75.42
2022-10-20T08:55:17.418Z,75.01
2022-10-20T08:56:17.333Z,75.35
2022-10-20T08:57:17.354Z,75.01
2022-10-20T08:58:17.318Z,74.07
2022-10-20T08:59:17.312Z,72.14
2022-10-20T09:00:17.308Z,71.40
2022-10-20T09:01:17.335Z,71.17
2022-10-20T09:02:17.345Z,69.58
2022-10-20T09:03:17.287Z,70.79
2022-10-20T09:04:17.271Z,70.76
2022-10-20T09:05:19.186Z,71.00
2022-10-20T09:06:17.255Z,70.39
2022-10-20T09:07:17.288Z,71.77
2022-10-20T09:08:17.239Z,71.87
2022-10-20T09:09:17.231Z,72.64
2022-10-20T09:10:17.226Z,71.00
2022-10-20T09:11:17.216Z,70.12
2022-10-20T09:12:17.208Z,68.48
2022-10-20T09:13:17.226Z,68.24
2022-10-20T09:14:17.187Z,66.34
2022-10-20T09:15:17.184Z,65.41
2022-10-20T09:16:27.209Z,65.67
2022-10-20T09:17:19.214Z,65.34
2022-10-20T09:18:17.159Z,65.18
2022-10-20T09:19:17.148Z,64.59
2022-10-20T09:20:17.139Z,63.90
2022-10-20T09:21:17.129Z,65.04
2022-10-20T09:22:17.155Z,67.38
2022-10-20T09:23:39.484Z,67.31
2022-10-20T09:24:19.113Z,67.27
2022-10-20T09:25:17.107Z,67.71
2022-10-20T09:26:30.470Z,66.17
2022-10-20T09:27:18.112Z,65.71
2022-10-20T09:28:17.083Z,64.11
2022-10-20T09:29:17.078Z,65.81
2022-10-20T09:30:17.065Z,63.95
2022-10-20T09:31:17.060Z,64.88
2022-10-20T09:32:41.208Z,63.57
2022-10-20T09:33:19.069Z,63.81
2022-10-20T09:34:17.029Z,63.98
2022-10-20T09:35:17.017Z,64.04
2022-10-20T09:36:17.010Z,63.89
2022-10-20T09:37:17.007Z,62.81
2022-10-20T09:38:17.026Z,63.68
2022-10-20T09:39:16.992Z,61.88
2022-10-20T09:40:16.983Z,63.39
2022-10-20T09:41:16.987Z,64.95
2022-10-20T09:42:16.967Z,65.74
2022-10-20T09:43:16.985Z,67.58
2022-10-20T09:44:16.957Z,66.35
2022-10-20T09:45:16.951Z,66.35
2022-10-20T09:46:16.935Z,64.40
2022-10-20T09:47:16.936Z,65.06
2022-10-20T09:48:16.949Z,67.88
2022-10-20T09:49:16.926Z,67.60
2022-10-20T09:50:16.905Z,70.32
2022-10-20T09:51:16.898Z,69.45
2022-10-20T09:52:16.890Z,69.99
2022-10-20T09:53:16.912Z,69.79
2022-10-20T09:54:16.881Z,70.59
2022-10-20T09:55:16.879Z,70.06
2022-10-20T09:56:16.866Z,70.46
2022-10-20T09:57:16.834Z,70.66
2022-10-20T09:58:17.879Z,71.60
2022-10-20T09:59:16.831Z,71.84
2022-10-20T10:00:35.861Z,72.75
2022-10-20T10:01:18.859Z,72.85
2022-10-20T10:02:16.804Z,71.91
2022-10-20T10:03:16.816Z,74.40
2022-10-20T10:04:17.793Z,73.08
2022-10-20T10:05:16.788Z,72.14
2022-10-20T10:06:16.772Z,72.11
2022-10-20T10:07:16.761Z,71.84
2022-10-20T10:08:16.812Z,71.87
2022-10-20T10:09:16.801Z,73.28
2022-10-20T10:10:16.818Z,73.42
2022-10-20T10:11:16.744Z,71.84
2022-10-20T10:12:16.754Z,72.11
2022-10-20T10:13:18.197Z,74.22
2022-10-20T10:14:16.712Z,73.58
2022-10-20T10:15:16.701Z,74.56
2022-10-20T10:16:16.695Z,76.38
2022-10-20T10:17:16.688Z,74.43
2022-10-20T10:18:16.704Z,73.22
2022-10-20T10:19:16.670Z,73.32
2022-10-20T10:20:16.674Z,72.58
2022-10-20T10:21:16.652Z,72.98
2022-10-20T10:22:16.649Z,72.54
2022-10-20T10:23:16.672Z,73.05
2022-10-20T10:24:16.623Z,73.08
2022-10-20T10:25:16.620Z,74.73
2022-10-20T10:26:16.615Z,75.03
2022-10-20T10:27:16.603Z,72.71
2022-10-20T10:28:16.626Z,71.77
2022-10-20T10:29:16.617Z,71.84
2022-10-20T10:30:16.589Z,71.33
2022-10-20T10:31:16.577Z,70.16
2022-10-20T10:32:16.567Z,71.13
2022-10-20T10:33:16.569Z,71.33
2022-10-20T10:34:16.576Z,71.30
2022-10-20T10:35:16.539Z,71.73
2022-10-20T10:36:16.535Z,71.63
2022-10-20T10:37:16.546Z,71.30
2022-10-20T10:38:16.514Z,70.12
2022-10-20T10:39:16.542Z,68.85
2022-10-20T10:40:16.512Z,67.32
2022-10-20T10:41:16.494Z,67.08
2022-10-20T10:42:16.486Z,66.02
2022-10-20T10:43:16.476Z,66.38
2022-10-20T10:44:16.497Z,65.61
2022-10-20T10:45:16.468Z,65.61
2022-10-20T10:46:16.455Z,65.44
2022-10-20T10:47:16.447Z,67.65
2022-10-20T10:48:16.452Z,68.75
2022-10-20T10:49:16.460Z,69.82
2022-10-20T10:50:16.420Z,66.47
2022-10-20T10:51:16.418Z,65.41
2022-10-20T10:52:16.410Z,66.64
2022-10-20T10:53:16.405Z,67.44
2022-10-20T10:54:16.421Z,66.41
2022-10-20T10:55:30.597Z,64.30
2022-10-20T10:56:18.381Z,64.77
2022-10-20T10:57:16.369Z,64.67
2022-10-20T10:58:16.358Z,64.90
2022-10-20T10:59:16.387Z,65.64
2022-10-20T11:00:16.343Z,66.38
2022-10-20T11:01:16.352Z,64.97
2022-10-20T11:02:16.326Z,63.60
2022-10-20T11:03:16.321Z,62.37
2022-10-20T11:04:16.339Z,63.20
2022-10-20T11:06:17.291Z,62.21
2022-10-20T11:07:16.282Z,62.58
2022-10-20T11:08:16.303Z,63.89
2022-10-20T11:09:16.298Z,64.86
2022-10-20T11:10:16.263Z,63.95
2022-10-20T11:11:16.263Z,62.22
2022-10-20T11:12:16.255Z,62.38
2022-10-20T11:13:16.236Z,63.58
2022-10-20T11:14:16.299Z,62.95
2022-10-20T11:15:16.228Z,60.42
2022-10-20T11:16:16.257Z,61.35
2022-10-20T11:17:16.209Z,62.71
2022-10-20T11:18:16.204Z,62.75
2022-10-20T11:19:16.220Z,61.15
2022-10-20T11:20:16.186Z,61.92
2022-10-20T11:21:16.184Z,60.79
2022-10-20T11:22:16.188Z,59.79
2022-10-20T11:23:16.165Z,60.22
2022-10-20T11:24:16.184Z,61.05
2022-10-20T11:25:16.199Z,60.42
2022-10-20T11:26:16.141Z,61.72
2022-10-20T11:27:16.142Z,61.25
2022-10-20T11:28:16.119Z,61.25
2022-10-20T11:29:16.154Z,61.68
2022-10-20T11:30:16.111Z,64.69
2022-10-20T11:31:16.107Z,61.38
2022-10-20T11:32:16.091Z,61.18
2022-10-20T11:33:16.084Z,60.82
2022-10-20T11:34:16.106Z,59.27
2022-10-20T11:35:16.067Z,59.21
2022-10-20T11:36:16.058Z,57.31
2022-10-20T11:37:16.056Z,58.28
2022-10-20T11:38:16.044Z,58.51
2022-10-20T11:39:16.061Z,60.00
2022-10-20T11:40:17.028Z,58.61
2022-10-20T11:41:16.018Z,57.46
2022-10-20T11:42:16.009Z,58.25
2022-10-20T11:43:15.983Z,56.13
2022-10-20T11:44:17.022Z,57.39
2022-10-20T11:45:15.988Z,58.31
2022-10-20T11:46:15.977Z,58.31
2022-10-20T11:47:15.974Z,58.84
2022-10-20T11:48:15.961Z,59.47
2022-10-20T11:49:15.993Z,58.54
2022-10-20T11:50:15.951Z,60.50
2022-10-20T11:51:15.944Z,59.91
2022-10-20T11:52:15.927Z,59.18
2022-10-20T11:53:15.922Z,58.68
2022-10-20T11:54:15.943Z,58.06
2022-10-20T11:55:15.908Z,57.53
2022-10-20T11:56:15.898Z,59.62
2022-10-20T11:57:15.899Z,59.75
2022-10-20T11:58:15.890Z,57.48
2022-10-20T11:59:15.907Z,58.73
2022-10-20T12:00:15.919Z,59.72
2022-10-20T12:01:15.864Z,61.25
2022-10-20T12:02:15.877Z,62.18
2022-10-20T12:03:15.908Z,63.18
2022-10-20T12:04:15.870Z,62.98
2022-10-20T12:05:15.834Z,63.61
2022-10-20T12:06:15.823Z,63.92
2022-10-20T12:07:15.823Z,63.54
2022-10-20T12:08:29.355Z,63.78
2022-10-20T12:09:17.919Z,63.81
2022-10-20T12:10:15.794Z,64.64
2022-10-20T12:11:15.793Z,64.84
2022-10-20T12:12:15.780Z,64.24
2022-10-20T12:13:15.774Z,65.67
2022-10-20T12:14:15.793Z,67.51
2022-10-20T12:15:18.911Z,67.65
2022-10-20T12:16:16.742Z,67.27
2022-10-20T12:17:15.743Z,68.11
2022-10-20T12:18:15.736Z,68.11
2022-10-20T12:19:15.757Z,69.56
2022-10-20T12:20:15.719Z,70.39
2022-10-20T12:21:15.715Z,70.59
2022-10-20T12:22:15.691Z,71.94
2022-10-20T12:23:16.688Z,71.44
2022-10-20T12:24:15.680Z,71.13
2022-10-20T12:25:15.742Z,71.23
2022-10-20T12:26:15.673Z,72.04
2022-10-20T12:27:15.657Z,72.71
2022-10-20T12:28:15.651Z,73.22
2022-10-20T12:29:15.643Z,73.62
2022-10-20T12:30:15.662Z,74.36
2022-10-20T12:31:15.630Z,74.05
2022-10-20T12:32:15.619Z,74.76
2022-10-20T12:33:16.609Z,75.51
2022-10-20T12:34:15.595Z,76.01
2022-10-20T12:35:15.642Z,76.04
2022-10-20T12:36:15.591Z,76.01
2022-10-20T12:37:15.580Z,76.62
2022-10-20T12:38:15.574Z,76.42
2022-10-20T12:39:15.568Z,76.01
2022-10-20T12:40:15.590Z,77.02
2022-10-20T12:41:15.549Z,76.82
2022-10-20T12:42:15.538Z,76.51
2022-10-20T12:43:15.539Z,76.01
2022-10-20T12:44:15.518Z,76.62
2022-10-20T12:45:15.553Z,76.42
2022-10-20T12:46:15.549Z,76.51
2022-10-20T12:47:15.501Z,76.51
2022-10-20T12:48:15.507Z,76.92
2022-10-20T12:49:15.485Z,77.32
2022-10-20T12:50:15.512Z,77.42
2022-10-20T12:51:15.471Z,77.06
2022-10-20T12:52:15.461Z,78.47
2022-10-20T12:53:15.455Z,78.43
2022-10-20T12:54:15.442Z,78.88
2022-10-20T12:55:15.555Z,78.88
2022-10-20T12:56:15.438Z,78.97